createdAt,value
2022-10-12T09:05:27.637Z,21.8
2022-10-12T09:06:03.673Z,21.9
2022-10-12T09:07:04.331Z,21.9
2022-10-12T09:08:03.677Z,21.9
2022-10-12T09:09:03.907Z,21.9
2022-10-12T09:10:03.691Z,21.9
2022-10-12T09:11:03.670Z,22.0
2022-10-12T09:12:03.733Z,22.0
2022-10-12T09:13:04.660Z,22.0
2022-10-12T09:14:03.745Z,22.0
2022-10-12T09:15:03.697Z,22.1
2022-10-12T09:16:03.709Z,22.1
2022-10-12T09:17:03.683Z,22.1
2022-10-12T09:18:03.726Z,22.1
2022-10-12T09:19:03.700Z,22.2
2022-10-12T09:20:03.682Z,22.2
2022-10-12T09:21:03.680Z,22.2
2022-10-12T09:22:03.679Z,22.2
2022-10-12T09:23:03.700Z,22.2
2022-10-12T09:24:03.691Z,22.2
2022-10-12T09:25:03.687Z,22.2
2022-10-12T09:26:03.691Z,22.2
2022-10-12T09:27:03.670Z,22.2
2022-10-12T09:28:04.937Z,22.2
2022-10-12T09:29:03.774Z,22.2
2022-10-12T09:30:03.690Z,22.2
2022-10-12T09:31:03.683Z,22.2
2022-10-12T09:32:04.499Z,22.2
2022-10-12T09:33:03.686Z,22.2
2022-10-12T09:34:03.714Z,22.2
2022-10-12T09:35:03.711Z,22.3
2022-10-12T09:36:03.694Z,22.3
2022-10-12T09:37:03.694Z,22.3
2022-10-12T09:38:03.781Z,22.3
2022-10-12T09:39:03.696Z,22.3
2022-10-12T09:40:03.705Z,22.4
2022-10-12T09:41:03.717Z,22.4
2022-10-12T09:42:03.717Z,22.4
2022-10-12T09:43:03.691Z,22.4
2022-10-12T09:44:03.723Z,22.4
2022-10-12T09:45:03.696Z,22.4
2022-10-12T09:46:03.687Z,22.4
2022-10-12T09:47:03.691Z,22.4
2022-10-12T09:48:03.699Z,22.4
2022-10-12T09:49:03.698Z,22.5
2022-10-12T09:50:03.717Z,22.5
2022-10-12T09:51:03.716Z,22.5
2022-10-12T09:52:03.686Z,22.5
2022-10-12T09:53:03.741Z,22.5
2022-10-12T09:54:03.743Z,22.5
2022-10-12T09:57:20.734Z,22.2
2022-10-12T09:58:07.476Z,22.4
2022-10-12T09:59:32.458Z,22.2
2022-10-12T10:00:04.126Z,22.4
2022-10-12T10:01:05.837Z,22.4
2022-10-12T10:02:04.163Z,22.4
2022-10-12T10:03:04.133Z,22.5
2022-10-12T10:04:04.133Z,22.5
2022-10-12T10:05:04.139Z,22.5
2022-10-12T10:06:04.184Z,22.5
2022-10-12T10:07:04.151Z,22.5
2022-10-12T10:08:04.202Z,22.5
2022-10-12T10:09:04.205Z,22.6
2022-10-12T10:10:04.291Z,22.6
2022-10-12T10:11:06.528Z,22.6
2022-10-12T10:12:04.330Z,22.6
2022-10-12T10:13:04.360Z,22.6
2022-10-12T10:14:04.290Z,22.6
2022-10-12T10:15:04.539Z,22.6
2022-10-12T10:16:04.719Z,22.6
2022-10-12T10:17:04.542Z,22.6
2022-10-12T10:18:05.531Z,22.7
2022-10-12T10:19:04.264Z,22.6
2022-10-12T10:20:04.299Z,22.7
2022-10-12T10:21:04.307Z,22.7
2022-10-12T10:22:04.302Z,22.7
2022-10-12T10:23:04.545Z,22.7
2022-10-12T10:24:04.339Z,22.7
2022-10-12T10:25:04.638Z,22.7
2022-10-12T10:26:05.209Z,22.7
2022-10-12T10:27:04.608Z,22.7
2022-10-12T10:28:04.294Z,22.7
2022-10-12T10:29:04.357Z,22.8
2022-10-12T10:30:28.783Z,22.8
2022-10-12T10:31:04.524Z,22.7
2022-10-12T10:32:05.331Z,22.8
2022-10-12T10:33:04.249Z,22.8
2022-10-12T10:34:04.225Z,22.8
2022-10-12T10:35:04.259Z,22.8
2022-10-12T10:36:04.293Z,22.8
2022-10-12T10:37:05.464Z,22.8
2022-10-12T10:38:04.248Z,22.8
2022-10-12T10:39:04.566Z,22.8
2022-10-12T10:40:04.152Z,22.8
2022-10-12T10:41:04.172Z,22.9
2022-10-12T10:42:04.144Z,22.9
2022-10-12T10:43:04.152Z,22.9
2022-10-12T10:44:04.168Z,22.8
2022-10-12T10:45:04.170Z,22.9
2022-10-12T10:46:04.201Z,22.9
2022-10-12T10:47:04.180Z,22.9
2022-10-12T10:48:04.233Z,22.9
2022-10-12T10:49:04.158Z,22.9
2022-10-12T10:50:04.161Z,22.9
2022-10-12T10:51:04.240Z,22.9
2022-10-12T10:52:04.156Z,22.9
2022-10-12T10:53:04.175Z,22.9
2022-10-12T10:55:35.728Z,22.6
2022-10-12T10:56:03.683Z,22.8
2022-10-12T10:57:03.649Z,22.9
2022-10-12T10:58:03.667Z,22.9
2022-10-12T10:59:09.060Z,23.0
2022-10-12T11:00:33.444Z,23.0
2022-10-12T11:01:03.651Z,22.9
2022-10-12T11:02:03.802Z,23.0
2022-10-12T11:03:03.798Z,23.0
2022-10-12T11:04:04.579Z,23.0
2022-10-12T11:05:03.658Z,23.0
2022-10-12T11:06:03.690Z,23.1
2022-10-12T11:07:03.682Z,23.1
2022-10-12T11:08:03.841Z,23.1
2022-10-12T11:09:03.654Z,23.1
2022-10-12T11:10:03.701Z,23.1
2022-10-12T11:11:03.698Z,23.1
2022-10-12T11:12:03.690Z,23.1
2022-10-12T11:13:03.887Z,23.1
2022-10-12T11:14:03.666Z,23.1
2022-10-12T11:15:16.922Z,23.1
2022-10-12T11:16:03.695Z,23.1
2022-10-12T11:17:03.693Z,23.1
2022-10-12T11:18:03.686Z,23.1
2022-10-12T11:19:03.688Z,23.2
2022-10-12T11:20:03.700Z,23.2
2022-10-12T11:21:03.717Z,23.2
2022-10-12T11:22:04.165Z,23.1
2022-10-12T11:23:03.706Z,23.1
2022-10-12T11:24:03.711Z,23.2
2022-10-12T11:25:03.728Z,23.2
2022-10-12T11:26:03.844Z,23.2
2022-10-12T11:27:03.797Z,23.2
2022-10-12T11:28:03.818Z,23.1
2022-10-12T11:29:03.746Z,23.1
2022-10-12T11:30:09.448Z,23.1
2022-10-12T11:31:03.763Z,23.1
2022-10-12T11:32:03.703Z,23.1
2022-10-12T11:33:03.688Z,23.1
2022-10-12T11:34:03.714Z,23.1
2022-10-12T11:35:03.719Z,23.1
2022-10-12T11:36:03.711Z,23.1
2022-10-12T11:37:19.737Z,23.1
2022-10-12T11:38:03.713Z,23.1
2022-10-12T11:39:07.088Z,23.1
2022-10-12T11:40:03.696Z,23.1
2022-10-12T11:41:19.037Z,23.1
2022-10-12T11:42:20.882Z,23.1
2022-10-12T11:43:10.395Z,23.0
2022-10-12T11:44:04.194Z,23.1
2022-10-12T11:45:11.558Z,23.1
2022-10-12T11:46:04.295Z,23.2
2022-10-12T11:47:04.293Z,23.2
2022-10-12T11:48:04.308Z,23.2
2022-10-12T11:49:04.307Z,23.2
2022-10-12T11:50:04.301Z,23.2
2022-10-12T11:51:04.520Z,23.3
2022-10-12T11:52:04.341Z,23.3
2022-10-12T11:53:04.298Z,23.3
2022-10-12T11:54:04.336Z,23.3
2022-10-12T11:55:04.343Z,23.3
2022-10-12T11:56:04.314Z,23.3
2022-10-12T11:57:04.308Z,23.3
2022-10-12T11:58:06.454Z,23.3
2022-10-12T11:59:04.315Z,23.3
2022-10-12T12:00:04.302Z,23.3
2022-10-12T12:01:04.312Z,23.3
2022-10-12T12:02:04.314Z,23.3
2022-10-12T12:03:04.316Z,23.3
2022-10-12T12:04:22.634Z,23.3
2022-10-12T12:05:04.396Z,23.3
2022-10-12T12:06:04.313Z,23.3
2022-10-12T12:07:04.324Z,23.3
2022-10-12T12:08:04.347Z,23.3
2022-10-12T12:09:04.340Z,23.3
2022-10-12T12:10:04.328Z,23.3
2022-10-12T12:11:04.330Z,23.3
2022-10-12T12:12:04.306Z,23.4
2022-10-12T12:13:04.308Z,23.3
2022-10-12T12:14:04.318Z,23.4
2022-10-12T12:15:04.377Z,23.4
2022-10-12T12:16:04.340Z,23.4
2022-10-12T12:17:04.318Z,23.4
2022-10-12T12:18:04.300Z,23.4
2022-10-12T12:19:04.366Z,23.4
2022-10-12T12:20:04.311Z,23.5
2022-10-12T12:21:04.316Z,23.5
2022-10-12T12:22:04.312Z,23.5
2022-10-12T12:23:04.334Z,23.5
2022-10-12T12:24:04.303Z,23.5
2022-10-12T12:25:04.387Z,23.5
2022-10-12T12:26:04.340Z,23.5
2022-10-12T12:27:04.376Z,23.5
2022-10-12T12:28:04.363Z,23.5
2022-10-12T12:29:04.425Z,23.5
2022-10-12T12:30:06.387Z,23.5
2022-10-12T12:31:04.365Z,23.5
2022-10-12T12:32:04.315Z,23.4
2022-10-12T12:33:04.360Z,23.4
2022-10-12T12:34:04.329Z,23.4
2022-10-12T12:35:04.301Z,23.4
2022-10-12T12:36:04.343Z,23.4
2022-10-12T12:37:04.329Z,23.4
2022-10-12T12:38:04.306Z,23.4
2022-10-12T12:39:04.851Z,23.4
2022-10-12T12:40:04.451Z,23.4
2022-10-12T12:43:23.149Z,23.0
2022-10-12T12:44:03.872Z,23.2
2022-10-12T12:45:03.886Z,23.3
2022-10-12T12:46:03.865Z,23.3
2022-10-12T12:47:08.503Z,23.3
2022-10-12T12:49:03.877Z,23.3
2022-10-12T12:50:03.932Z,23.3
2022-10-12T12:51:03.917Z,23.3
2022-10-12T12:52:03.868Z,23.3
2022-10-12T12:53:03.883Z,23.3
2022-10-12T12:54:03.887Z,23.3
2022-10-12T12:55:03.892Z,23.4
2022-10-12T12:56:03.887Z,23.3
2022-10-12T12:57:03.954Z,23.3
2022-10-12T12:58:04.426Z,23.3
2022-10-12T12:59:03.862Z,23.3
2022-10-12T13:00:03.899Z,23.4
2022-10-12T13:01:04.497Z,23.4
2022-10-12T13:02:03.942Z,23.4
2022-10-12T13:03:04.880Z,23.4
2022-10-12T13:04:04.356Z,23.4
2022-10-12T13:05:04.291Z,23.5
2022-10-12T13:06:04.382Z,23.5
2022-10-12T13:07:04.371Z,23.6
2022-10-12T13:08:04.484Z,23.6
2022-10-12T13:09:03.919Z,23.7
2022-10-12T13:10:03.879Z,23.7
2022-10-12T13:11:03.897Z,23.7
2022-10-12T13:12:03.874Z,23.7
2022-10-12T13:13:03.915Z,23.8
2022-10-12T13:14:03.890Z,23.8
2022-10-12T13:15:03.938Z,23.8
2022-10-12T13:16:04.009Z,23.8
2022-10-12T13:17:32.639Z,23.9
2022-10-12T13:18:03.954Z,23.8
2022-10-12T13:19:03.982Z,23.9
2022-10-12T13:20:03.996Z,23.9
2022-10-12T13:21:03.871Z,23.9
2022-10-12T13:22:03.890Z,23.9
2022-10-12T13:23:03.898Z,24.0
2022-10-12T13:24:04.273Z,24.0
2022-10-12T13:25:03.906Z,24.0
2022-10-12T13:26:03.898Z,24.0
2022-10-12T13:27:03.879Z,24.0
2022-10-12T13:28:04.600Z,24.0
2022-10-12T13:30:38.916Z,23.7
2022-10-12T13:31:04.885Z,23.9
2022-10-12T13:32:05.386Z,24.0
2022-10-12T13:33:04.478Z,24.0
2022-10-12T13:34:04.570Z,24.0
2022-10-12T13:35:04.639Z,24.1
2022-10-12T13:36:04.601Z,24.1
2022-10-12T13:37:05.568Z,24.2
2022-10-12T13:38:04.587Z,24.2
2022-10-12T13:39:04.622Z,24.2
2022-10-12T13:40:05.550Z,24.2
2022-10-12T13:41:04.571Z,24.2
2022-10-12T13:42:04.576Z,24.1
2022-10-12T13:43:04.540Z,24.2
2022-10-12T13:44:04.501Z,24.2
2022-10-12T13:45:04.550Z,24.2
2022-10-12T13:46:04.493Z,24.2
2022-10-12T13:47:07.938Z,24.2
2022-10-12T13:48:04.588Z,24.2
2022-10-12T13:49:04.532Z,24.2
2022-10-12T13:50:04.525Z,24.2
2022-10-12T13:51:04.494Z,24.2
2022-10-12T13:52:04.515Z,24.2
2022-10-12T13:53:04.522Z,24.2
2022-10-12T13:54:04.566Z,24.2
2022-10-12T13:55:04.506Z,24.1
2022-10-12T13:56:04.590Z,24.1
2022-10-12T13:57:04.571Z,24.1
2022-10-12T13:58:05.814Z,24.1
2022-10-12T13:59:07.070Z,24.1
2022-10-12T14:01:04.246Z,24.0
2022-10-12T14:02:04.245Z,24.1
2022-10-12T14:03:12.393Z,24.0
2022-10-12T14:04:22.280Z,24.0
2022-10-12T14:05:10.850Z,24.0
2022-10-12T14:06:04.660Z,24.1
2022-10-12T14:07:04.537Z,24.1
2022-10-12T14:08:11.861Z,24.0
2022-10-12T14:09:03.926Z,24.1
2022-10-12T14:10:03.969Z,24.1
2022-10-12T14:11:03.919Z,24.1
2022-10-12T14:12:03.926Z,24.1
2022-10-12T14:13:03.925Z,24.1
2022-10-12T14:14:04.006Z,24.1
2022-10-12T14:15:03.962Z,24.1
2022-10-12T14:16:03.942Z,24.1
2022-10-12T14:17:03.949Z,24.1
2022-10-12T14:18:03.976Z,24.1
2022-10-12T14:19:03.919Z,24.1
2022-10-12T14:20:04.051Z,24.1
2022-10-12T14:21:04.022Z,24.0
2022-10-12T14:22:05.135Z,24.1
2022-10-12T14:23:06.478Z,24.1
2022-10-12T14:24:03.982Z,24.1
2022-10-12T14:25:04.015Z,24.1
2022-10-12T14:26:04.054Z,24.1
2022-10-12T14:27:08.130Z,24.1
2022-10-12T14:28:04.102Z,24.1
2022-10-12T14:29:04.102Z,24.0
2022-10-12T14:30:04.089Z,24.0
2022-10-12T14:31:03.995Z,24.0
2022-10-12T14:32:04.011Z,23.9
2022-10-12T14:33:04.443Z,23.9
2022-10-12T14:34:06.400Z,23.9
2022-10-12T14:35:04.078Z,23.9
2022-10-12T14:36:04.363Z,23.9
2022-10-12T14:37:05.054Z,23.9
2022-10-12T14:38:04.130Z,23.9
2022-10-12T14:39:04.130Z,23.9
2022-10-12T14:40:04.098Z,23.9
2022-10-12T14:41:04.104Z,23.9
2022-10-12T14:42:04.066Z,23.9
2022-10-12T14:43:04.341Z,23.9
2022-10-12T14:44:09.666Z,23.9
2022-10-12T14:45:04.024Z,23.9
2022-10-12T14:46:04.082Z,23.9
2022-10-12T14:47:04.415Z,23.9
2022-10-12T14:48:04.070Z,23.9
2022-10-12T14:49:04.050Z,23.9
2022-10-12T14:50:04.068Z,23.9
2022-10-12T14:51:04.343Z,23.9
2022-10-12T14:52:04.105Z,23.9
2022-10-12T14:53:04.095Z,23.9
2022-10-12T14:54:05.325Z,23.9
2022-10-12T14:55:04.029Z,23.9
2022-10-12T14:56:04.068Z,23.9
2022-10-12T14:57:04.418Z,23.9
2022-10-12T14:58:05.032Z,23.9
2022-10-12T14:59:04.142Z,23.9
2022-10-12T15:00:04.116Z,23.9
2022-10-12T15:01:04.069Z,23.9
2022-10-12T15:02:04.596Z,23.9
2022-10-12T15:03:04.160Z,24.0
2022-10-12T15:04:04.069Z,24.0
2022-10-12T15:05:04.138Z,24.0
2022-10-12T15:06:04.319Z,24.0
2022-10-12T15:07:03.975Z,24.0
2022-10-12T15:08:03.998Z,24.0
2022-10-12T15:09:03.967Z,23.9
2022-10-12T15:10:04.490Z,23.9
2022-10-12T15:11:03.999Z,23.9
2022-10-12T15:12:03.994Z,23.9
2022-10-12T15:13:03.984Z,23.9
2022-10-12T15:14:03.991Z,23.9
2022-10-12T15:15:04.055Z,23.9
2022-10-12T15:16:04.129Z,23.9
2022-10-12T15:17:03.976Z,23.9
2022-10-12T15:18:04.015Z,23.9
2022-10-12T15:19:04.363Z,23.9
2022-10-12T15:20:04.023Z,23.9
2022-10-12T15:21:03.988Z,23.9
2022-10-12T15:22:03.995Z,23.9
2022-10-12T15:23:04.038Z,23.9
2022-10-12T15:24:03.982Z,23.9
2022-10-12T15:25:03.990Z,23.9
2022-10-12T15:26:03.978Z,24.0
2022-10-12T15:27:03.990Z,23.9
2022-10-12T15:28:04.013Z,23.9
2022-10-12T15:29:04.007Z,24.0
2022-10-12T15:30:04.028Z,24.0
2022-10-12T15:31:16.958Z,24.0
2022-10-12T15:32:03.996Z,23.9
2022-10-12T15:33:04.088Z,24.0
2022-10-12T15:34:04.036Z,24.0
2022-10-12T15:35:03.988Z,24.0
2022-10-12T15:36:04.024Z,23.9
2022-10-12T15:37:08.698Z,23.9
2022-10-12T15:38:04.178Z,23.9
2022-10-12T15:40:21.107Z,23.9
2022-10-12T15:40:25.073Z,23.6
2022-10-12T15:41:03.991Z,23.8
2022-10-12T15:42:04.009Z,23.9
2022-10-12T15:43:04.032Z,23.9
2022-10-12T15:44:03.994Z,23.8
2022-10-12T15:45:04.064Z,23.8
2022-10-12T15:46:04.001Z,23.9
2022-10-12T15:47:03.992Z,23.9
2022-10-12T15:48:04.016Z,23.9
2022-10-12T15:49:04.027Z,23.8
2022-10-12T15:50:04.017Z,23.8
2022-10-12T15:51:04.075Z,23.8
2022-10-12T15:52:04.009Z,23.8
2022-10-12T15:53:03.971Z,23.8
2022-10-12T15:54:03.997Z,23.8
2022-10-12T15:55:04.094Z,23.8
2022-10-12T15:56:04.051Z,23.8
2022-10-12T15:57:03.992Z,23.8
2022-10-12T15:58:04.085Z,23.9
2022-10-12T15:59:04.001Z,23.9
2022-10-12T16:00:04.121Z,23.8
2022-10-12T16:01:04.074Z,23.8
2022-10-12T16:02:04.173Z,23.8
2022-10-12T16:03:04.018Z,23.8
2022-10-12T16:04:04.078Z,23.9
2022-10-12T16:05:04.045Z,23.8
2022-10-12T16:06:04.010Z,23.8
2022-10-12T16:07:04.016Z,23.8
2022-10-12T16:08:04.120Z,23.8
2022-10-12T16:09:04.041Z,23.8
2022-10-12T16:10:04.013Z,23.8
2022-10-12T16:11:04.098Z,23.8
2022-10-12T16:12:04.013Z,23.8
2022-10-12T16:13:05.051Z,23.8
2022-10-12T16:14:04.249Z,23.8
2022-10-12T16:15:04.286Z,23.8
2022-10-12T16:16:05.011Z,23.9
2022-10-12T16:17:04.883Z,23.9
2022-10-12T16:18:05.318Z,23.9
2022-10-12T16:19:03.993Z,23.9
2022-10-12T16:20:04.054Z,23.9
2022-10-12T16:21:04.325Z,23.9
2022-10-12T16:22:04.103Z,23.9
2022-10-12T16:23:03.990Z,23.9
2022-10-12T16:24:04.024Z,23.9
2022-10-12T16:25:04.179Z,23.9
2022-10-12T16:26:04.781Z,23.9
2022-10-12T16:27:04.047Z,23.9
2022-10-12T16:28:04.067Z,23.9
2022-10-12T16:29:04.271Z,23.9
2022-10-12T16:30:04.042Z,23.9
2022-10-12T16:31:03.997Z,23.9
2022-10-12T16:32:04.334Z,23.9
2022-10-12T16:33:04.000Z,23.9
2022-10-12T16:34:04.073Z,23.9
2022-10-12T16:36:05.177Z,23.9
2022-10-12T16:37:04.047Z,24.0
2022-10-12T16:38:04.053Z,24.0
2022-10-12T16:39:04.118Z,24.0
2022-10-12T16:40:04.042Z,24.0
2022-10-12T16:41:04.036Z,24.0
2022-10-12T16:42:04.032Z,24.0
2022-10-12T16:43:04.116Z,24.0
2022-10-12T16:44:04.296Z,24.0
2022-10-12T16:45:04.487Z,24.0
2022-10-12T16:46:04.092Z,23.9
2022-10-12T16:47:04.036Z,23.9
2022-10-12T16:48:04.033Z,23.9
2022-10-12T16:49:04.067Z,23.9
2022-10-12T16:50:04.026Z,23.9
2022-10-12T16:51:04.029Z,23.9
2022-10-12T16:52:04.069Z,23.9
2022-10-12T16:53:04.164Z,23.9
2022-10-12T16:54:04.071Z,23.9
2022-10-12T16:55:04.074Z,23.9
2022-10-12T16:56:04.149Z,24.0
2022-10-12T16:57:04.046Z,24.0
2022-10-12T16:58:04.038Z,24.0
2022-10-12T16:59:04.077Z,24.0
2022-10-12T17:00:04.522Z,24.0
2022-10-12T17:01:04.568Z,24.0
2022-10-12T17:02:04.378Z,24.0
2022-10-12T17:03:04.154Z,24.0
2022-10-12T17:04:04.992Z,24.0
2022-10-12T17:05:04.209Z,24.0
2022-10-12T17:06:04.128Z,24.0
2022-10-12T17:07:04.225Z,24.0
2022-10-12T17:08:04.204Z,24.0
2022-10-12T17:09:04.241Z,24.0
2022-10-12T17:10:04.225Z,24.0
2022-10-12T17:11:04.200Z,24.0
2022-10-12T17:12:04.191Z,24.0
2022-10-12T17:13:04.080Z,24.0
2022-10-12T17:14:04.074Z,24.0
2022-10-12T17:15:04.050Z,24.0
2022-10-12T17:16:04.029Z,24.0
2022-10-12T17:17:04.054Z,24.0
2022-10-12T17:18:04.066Z,24.0
2022-10-12T17:19:04.054Z,24.0
2022-10-12T17:20:04.093Z,24.0
2022-10-12T17:21:04.058Z,24.0
2022-10-12T17:22:04.071Z,24.0
2022-10-12T17:23:04.103Z,24.0
2022-10-12T17:24:04.048Z,24.0
2022-10-12T17:25:04.040Z,24.0
2022-10-12T17:27:38.847Z,23.8
2022-10-12T17:28:03.856Z,23.9
2022-10-12T17:29:03.902Z,24.0
2022-10-12T17:30:04.585Z,24.0
2022-10-12T17:31:06.768Z,24.1
2022-10-12T17:32:03.865Z,24.1
2022-10-12T17:33:03.941Z,24.1
2022-10-12T17:34:03.947Z,24.1
2022-10-12T17:35:03.904Z,24.1
2022-10-12T17:36:03.906Z,24.1
2022-10-12T17:37:03.873Z,24.1
2022-10-12T17:38:03.901Z,24.1
2022-10-12T17:39:03.944Z,24.1
2022-10-12T17:40:03.869Z,24.1
2022-10-12T17:41:03.892Z,24.1
2022-10-12T17:42:03.866Z,24.0
2022-10-12T17:43:03.872Z,24.0
2022-10-12T17:44:03.882Z,24.0
2022-10-12T17:45:03.906Z,23.9
2022-10-12T17:46:03.867Z,23.9
2022-10-12T17:47:03.870Z,23.9
2022-10-12T17:48:03.883Z,23.9
2022-10-12T17:49:03.896Z,23.8
2022-10-12T17:50:03.886Z,23.8
2022-10-12T17:51:04.031Z,23.8
2022-10-12T17:52:03.863Z,23.8
2022-10-12T17:53:03.870Z,23.8
2022-10-12T17:54:03.874Z,23.7
2022-10-12T17:55:03.875Z,23.7
2022-10-12T17:56:03.891Z,23.7
2022-10-12T17:57:03.878Z,23.7
2022-10-12T17:58:03.894Z,23.7
2022-10-12T17:59:03.920Z,23.7
2022-10-12T18:00:03.886Z,23.7
2022-10-12T18:01:03.916Z,23.7
2022-10-12T18:02:06.882Z,23.7
2022-10-12T18:03:04.070Z,23.6
2022-10-12T18:04:03.903Z,23.7
2022-10-12T18:05:03.883Z,23.7
2022-10-12T18:06:03.887Z,23.6
2022-10-12T18:07:03.933Z,23.6
2022-10-12T18:08:03.867Z,23.6
2022-10-12T18:09:03.878Z,23.6
2022-10-12T18:10:03.881Z,23.6
2022-10-12T18:12:53.858Z,23.3
2022-10-12T18:13:04.611Z,23.4
2022-10-12T18:14:04.605Z,23.5
2022-10-12T18:15:04.655Z,23.6
2022-10-12T18:16:04.581Z,23.6
2022-10-12T18:17:05.499Z,23.7
2022-10-12T18:18:04.584Z,23.7
2022-10-12T18:19:05.142Z,23.7
2022-10-12T18:20:04.569Z,23.8
2022-10-12T18:21:05.164Z,23.8
2022-10-12T18:22:04.589Z,23.8
2022-10-12T18:23:04.581Z,23.8
2022-10-12T18:24:04.719Z,23.9
2022-10-12T18:25:04.589Z,23.9
2022-10-12T18:26:04.585Z,24.0
2022-10-12T18:27:04.615Z,24.0
2022-10-12T18:28:04.602Z,24.0
2022-10-12T18:29:04.936Z,24.0
2022-10-12T18:30:04.572Z,24.0
2022-10-12T18:31:04.582Z,24.1
2022-10-12T18:32:04.625Z,24.1
2022-10-12T18:33:04.589Z,24.1
2022-10-12T18:34:04.659Z,24.1
2022-10-12T18:35:04.602Z,24.1
2022-10-12T18:36:04.626Z,24.1
2022-10-12T18:37:04.617Z,24.2
2022-10-12T18:38:04.622Z,24.2
2022-10-12T18:39:04.691Z,24.2
2022-10-12T18:40:05.133Z,24.2
2022-10-12T18:41:04.821Z,24.2
2022-10-12T18:42:04.689Z,24.2
2022-10-12T18:43:04.703Z,24.2
2022-10-12T18:44:04.695Z,24.2
2022-10-12T18:45:04.640Z,24.2
2022-10-12T18:46:04.630Z,24.2
2022-10-12T18:47:04.653Z,24.3
2022-10-12T18:48:04.588Z,24.3
2022-10-12T18:49:04.595Z,24.3
2022-10-12T18:50:04.653Z,24.3
2022-10-12T18:51:04.604Z,24.3
2022-10-12T18:52:04.581Z,24.3
2022-10-12T18:53:04.639Z,24.3
2022-10-12T18:54:04.589Z,24.3
2022-10-12T18:55:04.626Z,24.3
2022-10-12T18:56:05.736Z,24.3
2022-10-12T18:57:04.623Z,24.3
2022-10-12T18:58:04.704Z,24.3
2022-10-12T18:59:04.707Z,24.3
2022-10-12T19:00:04.590Z,24.3
2022-10-12T19:01:05.542Z,24.3
2022-10-12T19:02:04.597Z,24.3
2022-10-12T19:03:04.793Z,24.3
2022-10-12T19:04:04.946Z,24.3
2022-10-12T19:05:04.620Z,24.3
2022-10-12T19:06:04.710Z,24.3
2022-10-12T19:07:04.609Z,24.3
2022-10-12T19:08:04.646Z,24.4
2022-10-12T19:09:04.699Z,24.3
2022-10-12T19:10:04.600Z,24.4
2022-10-12T19:11:04.606Z,24.4
2022-10-12T19:12:04.610Z,24.4
2022-10-12T19:13:04.645Z,24.4
2022-10-12T19:14:04.613Z,24.4
2022-10-12T19:15:04.610Z,24.4
2022-10-12T19:16:04.634Z,24.4
2022-10-12T19:17:04.597Z,24.4
2022-10-12T19:18:04.630Z,24.4
2022-10-12T19:19:04.598Z,24.4
2022-10-12T19:20:52.549Z,24.4
2022-10-12T19:21:04.605Z,24.2
2022-10-12T19:22:04.605Z,24.4
2022-10-12T19:23:04.614Z,24.4
2022-10-12T19:24:04.707Z,24.4
2022-10-12T19:25:04.628Z,24.4
2022-10-12T19:26:04.602Z,24.4
2022-10-12T19:27:04.638Z,24.4
2022-10-12T19:28:04.600Z,24.4
2022-10-12T19:29:04.615Z,24.4
2022-10-12T19:30:04.662Z,24.4
2022-10-12T19:31:04.604Z,24.4
2022-10-12T19:32:04.608Z,24.5
2022-10-12T19:33:04.638Z,24.5
2022-10-12T19:34:04.649Z,24.5
2022-10-12T19:35:04.601Z,24.5
2022-10-12T19:36:04.631Z,24.5
2022-10-12T19:37:04.630Z,24.5
2022-10-12T19:38:04.630Z,24.5
2022-10-12T19:39:04.617Z,24.5
2022-10-12T19:40:07.594Z,24.5
2022-10-12T19:41:04.632Z,24.5
2022-10-12T19:42:04.648Z,24.5
2022-10-12T19:43:04.608Z,24.5
2022-10-12T19:44:04.691Z,24.5
2022-10-12T19:45:04.620Z,24.5
2022-10-12T19:46:04.598Z,24.5
2022-10-12T19:47:04.624Z,24.5
2022-10-12T19:48:04.719Z,24.5
2022-10-12T19:49:04.860Z,24.5
2022-10-12T19:50:04.714Z,24.5
2022-10-12T19:51:04.604Z,24.5
2022-10-12T19:52:04.608Z,24.5
2022-10-12T19:53:04.615Z,24.5
2022-10-12T19:54:04.619Z,24.5
2022-10-12T19:55:04.715Z,24.5
2022-10-12T19:56:04.634Z,24.5
2022-10-12T19:57:04.688Z,24.5
2022-10-12T19:58:04.603Z,24.5
2022-10-12T19:59:04.747Z,24.5
2022-10-12T20:00:04.727Z,24.5
2022-10-12T20:01:04.754Z,24.5
2022-10-12T20:02:04.726Z,24.5
2022-10-12T20:03:04.731Z,24.5
2022-10-12T20:04:04.757Z,24.5
2022-10-12T20:05:04.743Z,24.5
2022-10-12T20:06:04.648Z,24.5
2022-10-12T20:07:04.642Z,24.5
2022-10-12T20:08:05.642Z,24.5
2022-10-12T20:09:04.655Z,24.4
2022-10-12T20:10:04.624Z,24.4
2022-10-12T20:11:04.804Z,24.4
2022-10-12T20:12:04.619Z,24.4
2022-10-12T20:13:04.615Z,24.4
2022-10-12T20:14:04.616Z,24.4
2022-10-12T20:15:04.619Z,24.4
2022-10-12T20:16:04.624Z,24.4
2022-10-12T20:17:04.660Z,24.4
2022-10-12T20:18:04.630Z,24.4
2022-10-12T20:19:04.631Z,24.4
2022-10-12T20:20:04.697Z,24.4
2022-10-12T20:21:04.660Z,24.4
2022-10-12T20:22:04.614Z,24.4
2022-10-12T20:23:04.617Z,24.4
2022-10-12T20:24:04.630Z,24.4
2022-10-12T20:25:09.327Z,24.4
2022-10-12T20:26:05.181Z,24.4
2022-10-12T20:27:04.632Z,24.4
2022-10-12T20:28:04.653Z,24.4
2022-10-12T20:29:04.643Z,24.4
2022-10-12T20:30:04.664Z,24.4
2022-10-12T20:31:04.678Z,24.4
2022-10-12T20:32:04.637Z,24.4
2022-10-12T20:33:04.645Z,24.4
2022-10-12T20:34:04.621Z,24.4
2022-10-12T20:35:04.649Z,24.4
2022-10-12T20:36:04.630Z,24.4
2022-10-12T20:37:04.658Z,24.4
2022-10-12T20:38:04.627Z,24.4
2022-10-12T20:39:04.628Z,24.4
2022-10-12T20:40:04.684Z,24.4
2022-10-12T20:41:04.648Z,24.4
2022-10-12T20:42:04.652Z,24.4
2022-10-12T20:43:04.639Z,24.3
2022-10-12T20:44:05.467Z,24.3
2022-10-12T20:45:04.695Z,24.3
2022-10-12T20:46:04.667Z,24.3
2022-10-12T20:47:04.713Z,24.3
2022-10-12T20:48:04.629Z,24.3
2022-10-12T20:49:04.637Z,24.3
2022-10-12T20:50:04.636Z,24.3
2022-10-12T20:51:04.698Z,24.3
2022-10-12T20:52:04.633Z,24.3
2022-10-12T20:53:04.636Z,24.3
2022-10-12T20:54:04.665Z,24.3
2022-10-12T20:55:04.679Z,24.3
2022-10-12T20:56:04.636Z,24.3
2022-10-12T20:57:04.641Z,24.3
2022-10-12T20:58:04.636Z,24.3
2022-10-12T20:59:04.649Z,24.3
2022-10-12T21:00:04.642Z,24.3
2022-10-12T21:01:04.695Z,24.3
2022-10-12T21:02:04.691Z,24.3
2022-10-12T21:03:04.695Z,24.3
2022-10-12T21:04:05.086Z,24.3
2022-10-12T21:05:04.653Z,24.3
2022-10-12T21:06:04.663Z,24.3
2022-10-12T21:07:04.635Z,24.3
2022-10-12T21:08:04.677Z,24.3
2022-10-12T21:09:04.647Z,24.3
2022-10-12T21:10:04.626Z,24.3
2022-10-12T21:11:04.700Z,24.3
2022-10-12T21:12:04.635Z,24.3
2022-10-12T21:13:04.645Z,24.3
2022-10-12T21:14:04.758Z,24.3
2022-10-12T21:15:04.645Z,24.3
2022-10-12T21:16:04.741Z,24.3
2022-10-12T21:17:04.644Z,24.3
2022-10-12T21:18:04.634Z,24.3
2022-10-12T21:19:04.640Z,24.3
2022-10-12T21:20:04.747Z,24.3
2022-10-12T21:21:04.654Z,24.3
2022-10-12T21:22:04.641Z,24.3
2022-10-12T21:23:04.643Z,24.3
2022-10-12T21:24:04.638Z,24.3
2022-10-12T21:25:04.739Z,24.3
2022-10-12T21:26:04.636Z,24.3
2022-10-12T21:27:04.638Z,24.3
2022-10-12T21:28:04.683Z,24.3
2022-10-12T21:29:04.648Z,24.3
2022-10-12T21:30:04.631Z,24.3
2022-10-12T21:31:04.657Z,24.3
2022-10-12T21:32:04.634Z,24.3
2022-10-12T21:33:05.556Z,24.3
2022-10-12T21:34:04.640Z,24.3
2022-10-12T21:35:04.672Z,24.3
2022-10-12T21:36:04.648Z,24.3
2022-10-12T21:37:04.658Z,24.3
2022-10-12T21:38:04.647Z,24.3
2022-10-12T21:39:04.681Z,24.3
2022-10-12T21:40:04.741Z,24.3
2022-10-12T21:41:05.745Z,24.3
2022-10-12T21:42:04.684Z,24.3
2022-10-12T21:43:04.690Z,24.3
2022-10-12T21:44:04.672Z,24.3
2022-10-12T21:45:04.713Z,24.3
2022-10-12T21:46:04.791Z,24.2
2022-10-12T21:47:04.658Z,24.3
2022-10-12T21:48:04.653Z,24.3
2022-10-12T21:49:04.724Z,24.3
2022-10-12T21:50:04.653Z,24.3
2022-10-12T21:51:04.652Z,24.3
2022-10-12T21:52:04.656Z,24.3
2022-10-12T21:53:04.644Z,24.3
2022-10-12T21:54:04.653Z,24.3
2022-10-12T21:55:04.673Z,24.3
2022-10-12T21:56:04.695Z,24.3
2022-10-12T21:57:04.641Z,24.3
2022-10-12T21:58:04.648Z,24.3
2022-10-12T21:59:04.649Z,24.3
2022-10-12T22:00:04.686Z,24.3
2022-10-12T22:02:56.310Z,24.0
2022-10-12T22:03:04.033Z,24.0
2022-10-12T22:04:04.054Z,24.2
2022-10-12T22:05:04.092Z,24.2
2022-10-12T22:06:04.037Z,24.2
2022-10-12T22:07:04.138Z,24.2
2022-10-12T22:08:04.039Z,24.2
2022-10-12T22:09:04.064Z,24.2
2022-10-12T22:10:04.074Z,24.2
2022-10-12T22:11:04.034Z,24.2
2022-10-12T22:12:04.048Z,24.2
2022-10-12T22:13:04.079Z,24.2
2022-10-12T22:14:04.044Z,24.2
2022-10-12T22:15:04.056Z,24.2
2022-10-12T22:16:04.044Z,24.3
2022-10-12T22:17:04.054Z,24.3
2022-10-12T22:18:04.039Z,24.3
2022-10-12T22:19:04.045Z,24.3
2022-10-12T22:20:04.078Z,24.3
2022-10-12T22:21:04.041Z,24.3
2022-10-12T22:22:04.048Z,24.2
2022-10-12T22:23:04.098Z,24.2
2022-10-12T22:24:04.051Z,24.2
2022-10-12T22:25:04.062Z,24.2
2022-10-12T22:26:04.807Z,24.2
2022-10-12T22:27:04.083Z,24.2
2022-10-12T22:28:04.064Z,24.2
2022-10-12T22:29:04.053Z,24.2
2022-10-12T22:30:04.058Z,24.2
2022-10-12T22:31:04.042Z,24.2
2022-10-12T22:32:04.048Z,24.2
2022-10-12T22:33:04.071Z,24.2
2022-10-12T22:34:04.055Z,24.2
2022-10-12T22:35:04.048Z,24.2